sensor_id;sensor_type;location;lat;lon;timestamp;temperature;humidity
50989;DHT22;37008;52.210;21.112;2023-02-01T00:01:55;2.40;99.90
50989;DHT22;37008;52.210;21.112;2023-02-01T00:04:21;2.40;99.90
50989;DHT22;37008;52.210;21.112;2023-02-01T00:06:47;2.40;99.90
50989;DHT22;37008;52.210;21.112;2023-02-01T00:09:13;2.40;99.90
50989;DHT22;37008;52.210;21.112;2023-02-01T00:11:39;2.40;99.90
50989;DHT22;37008;52.210;21.112;2023-02-01T00:14:04;2.40;99.90
50989;DHT22;37008;52.210;21.112;2023-02-01T00:16:30;2.40;99.90
50989;DHT22;37008;52.210;21.112;2023-02-01T00:19:03;2.40;99.90
50989;DHT22;37008;52.210;21.112;2023-02-01T00:21:31;2.40;99.90
50989;DHT22;37008;52.210;21.112;2023-02-01T00:23:57;2.40;99.90
50989;DHT22;37008;52.210;21.112;2023-02-01T00:28:53;2.40;99.90
50989;DHT22;37008;52.210;21.112;2023-02-01T00:31:18;2.50;99.90
50989;DHT22;37008;52.210;21.112;2023-02-01T00:33:47;2.50;99.90
50989;DHT22;37008;52.210;21.112;2023-02-01T00:36:13;2.50;99.90
50989;DHT22;37008;52.210;21.112;2023-02-01T00:38:39;2.60;99.90
50989;DHT22;37008;52.210;21.112;2023-02-01T00:41:05;2.60;99.90
50989;DHT22;37008;52.210;21.112;2023-02-01T00:43:32;2.60;99.90
50989;DHT22;37008;52.210;21.112;2023-02-01T00:45:59;2.60;99.90
50989;DHT22;37008;52.210;21.112;2023-02-01T00:48:25;2.70;99.90
50989;DHT22;37008;52.210;21.112;2023-02-01T00:50:51;2.70;99.90
50989;DHT22;37008;52.210;21.112;2023-02-01T00:53:17;2.70;99.90
50989;DHT22;37008;52.210;21.112;2023-02-01T00:55:46;2.80;99.90
50989;DHT22;37008;52.210;21.112;2023-02-01T00:58:12;2.80;99.90
50989;DHT22;37008;52.210;21.112;2023-02-01T01:00:38;2.90;99.90
50989;DHT22;37008;52.210;21.112;2023-02-01T01:03:04;2.90;99.90
50989;DHT22;37008;52.210;21.112;2023-02-01T01:05:49;2.90;99.90
50989;DHT22;37008;52.210;21.112;2023-02-01T01:08:16;2.90;99.90
50989;DHT22;37008;52.210;21.112;2023-02-01T01:10:42;2.90;99.90
50989;DHT22;37008;52.210;21.112;2023-02-01T01:13:08;2.90;99.90
50989;DHT22;37008;52.210;21.112;2023-02-01T01:15:38;2.80;99.90
50989;DHT22;37008;52.210;21.112;2023-02-01T01:18:04;2.80;99.90
50989;DHT22;37008;52.210;21.112;2023-02-01T01:20:30;2.80;99.90
50989;DHT22;37008;52.210;21.112;2023-02-01T01:22:55;2.80;99.90
50989;DHT22;37008;52.210;21.112;2023-02-01T01:25:21;2.80;99.90
50989;DHT22;37008;52.210;21.112;2023-02-01T01:27:47;2.80;99.90
50989;DHT22;37008;52.210;21.112;2023-02-01T01:30:12;2.70;99.90
50989;DHT22;37008;52.210;21.112;2023-02-01T01:32:38;2.70;99.90
50989;DHT22;37008;52.210;21.112;2023-02-01T01:35:04;2.60;99.90
50989;DHT22;37008;52.210;21.112;2023-02-01T01:37:30;2.60;99.90
50989;DHT22;37008;52.210;21.112;2023-02-01T01:39:56;2.50;99.90
50989;DHT22;37008;52.210;21.112;2023-02-01T01:42:22;2.50;99.90
50989;DHT22;37008;52.210;21.112;2023-02-01T01:45:04;2.50;99.90
50989;DHT22;37008;52.210;21.112;2023-02-01T01:47:57;2.60;99.90
50989;DHT22;37008;52.210;21.112;2023-02-01T01:50:32;2.60;99.90
50989;DHT22;37008;52.210;21.112;2023-02-01T01:53:00;2.60;99.90
50989;DHT22;37008;52.210;21.112;2023-02-01T01:55:30;2.60;99.90
50989;DHT22;37008;52.210;21.112;2023-02-01T01:58:04;2.50;99.90
50989;DHT22;37008;52.210;21.112;2023-02-01T02:00:31;2.60;99.90
50989;DHT22;37008;52.210;21.112;2023-02-01T02:03:02;2.60;99.90
50989;DHT22;37008;52.210;21.112;2023-02-01T02:05:29;2.60;99.90
50989;DHT22;37008;52.210;21.112;2023-02-01T02:07:58;2.70;99.90
50989;DHT22;37008;52.210;21.112;2023-02-01T02:10:25;2.60;99.90
50989;DHT22;37008;52.210;21.112;2023-02-01T02:13:11;2.60;99.90
50989;DHT22;37008;52.210;21.112;2023-02-01T02:15:42;2.70;99.90
50989;DHT22;37008;52.210;21.112;2023-02-01T02:18:18;2.70;99.90
50989;DHT22;37008;52.210;21.112;2023-02-01T02:24:09;2.70;99.90
50989;DHT22;37008;52.210;21.112;2023-02-01T02:35:46;2.60;99.90
50989;DHT22;37008;52.210;21.112;2023-02-01T02:41:19;2.60;99.90
50989;DHT22;37008;52.210;21.112;2023-02-01T02:47:25;2.60;99.90
50989;DHT22;37008;52.210;21.112;2023-02-01T02:50:27;2.60;99.90
50989;DHT22;37008;52.210;21.112;2023-02-01T02:53:17;2.70;99.90
50989;DHT22;37008;52.210;21.112;2023-02-01T02:56:05;2.60;99.90
50989;DHT22;37008;52.210;21.112;2023-02-01T02:58:50;2.60;99.90
50989;DHT22;37008;52.210;21.112;2023-02-01T03:01:35;2.60;99.90
50989;DHT22;37008;52.210;21.112;2023-02-01T03:04:19;2.70;99.90
50989;DHT22;37008;52.210;21.112;2023-02-01T03:06:46;2.70;99.90
50989;DHT22;37008;52.210;21.112;2023-02-01T03:09:35;2.70;99.90
50989;DHT22;37008;52.210;21.112;2023-02-01T03:12:06;2.80;99.90
50989;DHT22;37008;52.210;21.112;2023-02-01T03:14:57;2.70;99.90
50989;DHT22;37008;52.210;21.112;2023-02-01T03:17:30;2.70;99.90
50989;DHT22;37008;52.210;21.112;2023-02-01T03:20:00;2.70;99.90
50989;DHT22;37008;52.210;21.112;2023-02-01T03:22:28;2.80;99.90
50989;DHT22;37008;52.210;21.112;2023-02-01T03:25:03;2.70;99.90
50989;DHT22;37008;52.210;21.112;2023-02-01T03:27:43;2.70;99.90
50989;DHT22;37008;52.210;21.112;2023-02-01T03:30:24;2.70;99.90
50989;DHT22;37008;52.210;21.112;2023-02-01T03:32:55;2.70;99.90
50989;DHT22;37008;52.210;21.112;2023-02-01T03:35:57;2.70;99.90
50989;DHT22;37008;52.210;21.112;2023-02-01T03:43:35;2.70;99.90
50989;DHT22;37008;52.210;21.112;2023-02-01T03:46:05;2.50;99.90
50989;DHT22;37008;52.210;21.112;2023-02-01T03:48:33;2.40;99.90
50989;DHT22;37008;52.210;21.112;2023-02-01T03:51:03;2.30;99.90
50989;DHT22;37008;52.210;21.112;2023-02-01T03:53:31;2.20;99.90
50989;DHT22;37008;52.210;21.112;2023-02-01T03:55:58;2.10;99.90
50989;DHT22;37008;52.210;21.112;2023-02-01T03:58:24;2.10;99.90
50989;DHT22;37008;52.210;21.112;2023-02-01T04:00:58;2.10;99.90
50989;DHT22;37008;52.210;21.112;2023-02-01T04:03:24;2.20;99.90
50989;DHT22;37008;52.210;21.112;2023-02-01T04:05:51;2.20;99.90
50989;DHT22;37008;52.210;21.112;2023-02-01T04:08:22;2.10;99.90
50989;DHT22;37008;52.210;21.112;2023-02-01T04:10:48;2.10;99.90
50989;DHT22;37008;52.210;21.112;2023-02-01T04:13:13;2.10;99.90
50989;DHT22;37008;52.210;21.112;2023-02-01T04:15:39;2.10;99.90
50989;DHT22;37008;52.210;21.112;2023-02-01T04:18:05;2.10;99.90
50989;DHT22;37008;52.210;21.112;2023-02-01T04:20:30;2.10;99.90
50989;DHT22;37008;52.210;21.112;2023-02-01T04:22:56;2.10;99.90
50989;DHT22;37008;52.210;21.112;2023-02-01T04:25:22;2.20;99.90
50989;DHT22;37008;52.210;21.112;2023-02-01T04:27:47;2.10;99.90
50989;DHT22;37008;52.210;21.112;2023-02-01T04:30:13;2.20;99.90
50989;DHT22;37008;52.210;21.112;2023-02-01T04:32:39;2.20;99.90
50989;DHT22;37008;52.210;21.112;2023-02-01T04:35:05;2.20;99.90
50989;DHT22;37008;52.210;21.112;2023-02-01T04:37:31;2.30;99.90
50989;DHT22;37008;52.210;21.112;2023-02-01T04:39:57;2.30;99.90
50989;DHT22;37008;52.210;21.112;2023-02-01T04:42:23;2.30;99.90
50989;DHT22;37008;52.210;21.112;2023-02-01T04:44:48;2.30;99.90
50989;DHT22;37008;52.210;21.112;2023-02-01T04:47:14;2.30;99.90
50989;DHT22;37008;52.210;21.112;2023-02-01T04:49:41;2.30;99.90
50989;DHT22;37008;52.210;21.112;2023-02-01T04:52:06;2.40;99.90
50989;DHT22;37008;52.210;21.112;2023-02-01T04:54:32;2.40;99.90
50989;DHT22;37008;52.210;21.112;2023-02-01T04:56:58;2.50;99.90
50989;DHT22;37008;52.210;21.112;2023-02-01T04:59:23;2.50;99.90
50989;DHT22;37008;52.210;21.112;2023-02-01T05:01:49;2.60;99.90
50989;DHT22;37008;52.210;21.112;2023-02-01T05:04:15;2.60;99.90
50989;DHT22;37008;52.210;21.112;2023-02-01T05:06:41;2.60;99.90
50989;DHT22;37008;52.210;21.112;2023-02-01T05:09:06;2.70;99.90
50989;DHT22;37008;52.210;21.112;2023-02-01T05:11:32;2.70;99.90
50989;DHT22;37008;52.210;21.112;2023-02-01T05:14:16;2.70;99.90
50989;DHT22;37008;52.210;21.112;2023-02-01T05:16:41;2.80;99.90
50989;DHT22;37008;52.210;21.112;2023-02-01T05:19:07;2.80;99.90
50989;DHT22;37008;52.210;21.112;2023-02-01T05:21:32;2.80;99.90
50989;DHT22;37008;52.210;21.112;2023-02-01T05:23:58;2.80;99.90
50989;DHT22;37008;52.210;21.112;2023-02-01T05:26:41;2.80;99.90
50989;DHT22;37008;52.210;21.112;2023-02-01T05:29:08;2.80;99.90
50989;DHT22;37008;52.210;21.112;2023-02-01T05:31:34;2.80;99.90
50989;DHT22;37008;52.210;21.112;2023-02-01T05:34:00;2.90;99.90
50989;DHT22;37008;52.210;21.112;2023-02-01T05:36:26;2.90;99.90
50989;DHT22;37008;52.210;21.112;2023-02-01T05:38:52;2.80;99.90
50989;DHT22;37008;52.210;21.112;2023-02-01T05:41:17;2.90;99.90
50989;DHT22;37008;52.210;21.112;2023-02-01T05:43:43;2.90;99.90
50989;DHT22;37008;52.210;21.112;2023-02-01T05:46:09;2.90;99.90
50989;DHT22;37008;52.210;21.112;2023-02-01T05:48:39;2.90;99.90
50989;DHT22;37008;52.210;21.112;2023-02-01T05:51:05;2.90;99.90
50989;DHT22;37008;52.210;21.112;2023-02-01T05:53:30;2.90;99.90
50989;DHT22;37008;52.210;21.112;2023-02-01T05:55:56;2.80;99.90
50989;DHT22;37008;52.210;21.112;2023-02-01T05:58:22;2.70;99.90
50989;DHT22;37008;52.210;21.112;2023-02-01T06:00:47;2.70;99.90
50989;DHT22;37008;52.210;21.112;2023-02-01T06:03:13;2.70;99.90
50989;DHT22;37008;52.210;21.112;2023-02-01T06:05:39;2.70;99.90
50989;DHT22;37008;52.210;21.112;2023-02-01T06:08:04;2.70;99.90
50989;DHT22;37008;52.210;21.112;2023-02-01T06:10:33;2.70;99.90
50989;DHT22;37008;52.210;21.112;2023-02-01T06:12:58;2.70;99.90
50989;DHT22;37008;52.210;21.112;2023-02-01T06:15:24;2.80;99.90
50989;DHT22;37008;52.210;21.112;2023-02-01T06:17:50;2.80;99.90
50989;DHT22;37008;52.210;21.112;2023-02-01T06:20:16;2.80;99.90
50989;DHT22;37008;52.210;21.112;2023-02-01T06:22:41;2.80;99.90
50989;DHT22;37008;52.210;21.112;2023-02-01T06:25:09;2.80;99.90
50989;DHT22;37008;52.210;21.112;2023-02-01T06:27:35;2.80;99.90
50989;DHT22;37008;52.210;21.112;2023-02-01T06:30:01;2.80;99.90
50989;DHT22;37008;52.210;21.112;2023-02-01T06:32:27;2.80;99.90
50989;DHT22;37008;52.210;21.112;2023-02-01T06:34:53;2.80;99.90
50989;DHT22;37008;52.210;21.112;2023-02-01T06:37:19;2.80;99.90
50989;DHT22;37008;52.210;21.112;2023-02-01T06:39:45;2.90;99.90
50989;DHT22;37008;52.210;21.112;2023-02-01T06:42:11;2.90;99.90
50989;DHT22;37008;52.210;21.112;2023-02-01T06:44:37;2.90;99.90
50989;DHT22;37008;52.210;21.112;2023-02-01T06:47:03;3.00;99.90
50989;DHT22;37008;52.210;21.112;2023-02-01T06:49:29;2.90;99.90
50989;DHT22;37008;52.210;21.112;2023-02-01T06:51:54;3.00;99.90
50989;DHT22;37008;52.210;21.112;2023-02-01T06:54:20;3.00;99.90
50989;DHT22;37008;52.210;21.112;2023-02-01T06:56:46;3.00;99.90
50989;DHT22;37008;52.210;21.112;2023-02-01T06:59:12;3.00;99.90
50989;DHT22;37008;52.210;21.112;2023-02-01T07:01:37;3.10;99.90
50989;DHT22;37008;52.210;21.112;2023-02-01T07:04:03;3.00;99.90
50989;DHT22;37008;52.210;21.112;2023-02-01T07:06:29;3.10;99.90
50989;DHT22;37008;52.210;21.112;2023-02-01T07:08:55;3.10;99.90
50989;DHT22;37008;52.210;21.112;2023-02-01T07:11:24;3.10;99.90
50989;DHT22;37008;52.210;21.112;2023-02-01T07:13:50;3.10;99.90
50989;DHT22;37008;52.210;21.112;2023-02-01T07:16:18;3.10;99.90
50989;DHT22;37008;52.210;21.112;2023-02-01T07:18:44;3.10;99.90
50989;DHT22;37008;52.210;21.112;2023-02-01T07:21:11;3.10;99.90
50989;DHT22;37008;52.210;21.112;2023-02-01T07:23:37;3.10;99.90
50989;DHT22;37008;52.210;21.112;2023-02-01T07:26:05;3.10;99.90
50989;DHT22;37008;52.210;21.112;2023-02-01T07:28:33;3.10;99.90
50989;DHT22;37008;52.210;21.112;2023-02-01T07:31:07;3.10;99.90
50989;DHT22;37008;52.210;21.112;2023-02-01T07:33:33;3.10;99.90
50989;DHT22;37008;52.210;21.112;2023-02-01T07:36:01;3.00;99.90
50989;DHT22;37008;52.210;21.112;2023-02-01T07:38:27;3.10;99.90
50989;DHT22;37008;52.210;21.112;2023-02-01T07:40:58;3.00;99.90
50989;DHT22;37008;52.210;21.112;2023-02-01T07:43:25;2.90;99.90
50989;DHT22;37008;52.210;21.112;2023-02-01T07:45:51;2.80;99.90
50989;DHT22;37008;52.210;21.112;2023-02-01T07:48:17;2.80;99.90
50989;DHT22;37008;52.210;21.112;2023-02-01T07:50:43;2.80;99.90
50989;DHT22;37008;52.210;21.112;2023-02-01T07:53:09;2.80;99.90
50989;DHT22;37008;52.210;21.112;2023-02-01T07:55:37;2.80;99.90
50989;DHT22;37008;52.210;21.112;2023-02-01T07:58:03;2.80;99.90
50989;DHT22;37008;52.210;21.112;2023-02-01T08:00:29;2.80;99.90
50989;DHT22;37008;52.210;21.112;2023-02-01T08:03:13;2.90;99.90
50989;DHT22;37008;52.210;21.112;2023-02-01T08:05:38;2.90;99.90
50989;DHT22;37008;52.210;21.112;2023-02-01T08:08:04;2.90;99.90
50989;DHT22;37008;52.210;21.112;2023-02-01T08:10:30;2.80;99.90
50989;DHT22;37008;52.210;21.112;2023-02-01T08:12:59;2.80;99.90
50989;DHT22;37008;52.210;21.112;2023-02-01T08:15:28;2.80;99.90
50989;DHT22;37008;52.210;21.112;2023-02-01T08:17:54;2.70;99.90
50989;DHT22;37008;52.210;21.112;2023-02-01T08:20:20;2.60;99.90
50989;DHT22;37008;52.210;21.112;2023-02-01T08:22:51;2.60;99.90
50989;DHT22;37008;52.210;21.112;2023-02-01T08:25:16;2.60;99.90
50989;DHT22;37008;52.210;21.112;2023-02-01T08:27:42;2.50;99.90
50989;DHT22;37008;52.210;21.112;2023-02-01T08:30:08;2.60;99.90
50989;DHT22;37008;52.210;21.112;2023-02-01T08:32:34;2.60;99.90
50989;DHT22;37008;52.210;21.112;2023-02-01T08:35:01;2.60;99.90
50989;DHT22;37008;52.210;21.112;2023-02-01T08:37:26;2.60;99.90
50989;DHT22;37008;52.210;21.112;2023-02-01T08:39:52;2.60;99.90
50989;DHT22;37008;52.210;21.112;2023-02-01T08:42:18;2.50;99.90
50989;DHT22;37008;52.210;21.112;2023-02-01T08:45:04;2.50;99.90
50989;DHT22;37008;52.210;21.112;2023-02-01T08:47:30;2.50;99.90
50989;DHT22;37008;52.210;21.112;2023-02-01T08:49:56;2.50;99.90
50989;DHT22;37008;52.210;21.112;2023-02-01T08:52:22;2.50;99.90
50989;DHT22;37008;52.210;21.112;2023-02-01T08:54:48;2.50;99.90
50989;DHT22;37008;52.210;21.112;2023-02-01T08:57:14;2.50;99.90
50989;DHT22;37008;52.210;21.112;2023-02-01T08:59:39;2.60;99.90
50989;DHT22;37008;52.210;21.112;2023-02-01T09:02:05;2.60;99.90
50989;DHT22;37008;52.210;21.112;2023-02-01T09:04:31;2.50;99.90
50989;DHT22;37008;52.210;21.112;2023-02-01T09:06:58;2.60;99.90
50989;DHT22;37008;52.210;21.112;2023-02-01T09:09:24;2.60;99.90
50989;DHT22;37008;52.210;21.112;2023-02-01T09:11:52;2.60;99.90
50989;DHT22;37008;52.210;21.112;2023-02-01T09:14:18;2.60;99.90
50989;DHT22;37008;52.210;21.112;2023-02-01T09:16:44;2.70;99.90
50989;DHT22;37008;52.210;21.112;2023-02-01T09:19:10;2.70;99.90
50989;DHT22;37008;52.210;21.112;2023-02-01T09:21:36;2.80;99.90
50989;DHT22;37008;52.210;21.112;2023-02-01T09:24:02;2.80;99.90
50989;DHT22;37008;52.210;21.112;2023-02-01T09:26:27;2.90;99.90
50989;DHT22;37008;52.210;21.112;2023-02-01T09:28:53;2.90;99.90
50989;DHT22;37008;52.210;21.112;2023-02-01T09:31:19;2.90;99.90
50989;DHT22;37008;52.210;21.112;2023-02-01T09:33:44;3.00;99.90
50989;DHT22;37008;52.210;21.112;2023-02-01T09:36:10;3.10;99.90
50989;DHT22;37008;52.210;21.112;2023-02-01T09:38:36;3.10;99.90
50989;DHT22;37008;52.210;21.112;2023-02-01T09:41:06;3.10;99.90
50989;DHT22;37008;52.210;21.112;2023-02-01T09:43:42;3.20;99.90
50989;DHT22;37008;52.210;21.112;2023-02-01T09:46:50;3.30;99.90
50989;DHT22;37008;52.210;21.112;2023-02-01T09:49:19;3.40;99.90
50989;DHT22;37008;52.210;21.112;2023-02-01T09:51:49;3.50;99.90
50989;DHT22;37008;52.210;21.112;2023-02-01T09:54:22;3.60;99.90
50989;DHT22;37008;52.210;21.112;2023-02-01T09:56:53;3.70;99.90
50989;DHT22;37008;52.210;21.112;2023-02-01T10:01:52;3.90;99.90
50989;DHT22;37008;52.210;21.112;2023-02-01T10:04:18;3.90;99.90
50989;DHT22;37008;52.210;21.112;2023-02-01T10:06:58;3.90;99.90
50989;DHT22;37008;52.210;21.112;2023-02-01T10:18:45;4.10;99.90
50989;DHT22;37008;52.210;21.112;2023-02-01T10:21:50;4.10;99.90
50989;DHT22;37008;52.210;21.112;2023-02-01T10:27:13;4.10;99.90
50989;DHT22;37008;52.210;21.112;2023-02-01T10:29:42;4.20;99.90
50989;DHT22;37008;52.210;21.112;2023-02-01T10:32:14;4.20;99.90
50989;DHT22;37008;52.210;21.112;2023-02-01T10:34:41;4.20;99.90
50989;DHT22;37008;52.210;21.112;2023-02-01T10:37:27;4.20;99.90
50989;DHT22;37008;52.210;21.112;2023-02-01T10:39:55;4.20;99.90
50989;DHT22;37008;52.210;21.112;2023-02-01T10:42:25;4.10;99.90
50989;DHT22;37008;52.210;21.112;2023-02-01T10:44:51;4.10;99.90
50989;DHT22;37008;52.210;21.112;2023-02-01T10:47:18;4.10;99.90
50989;DHT22;37008;52.210;21.112;2023-02-01T10:49:55;4.20;99.90
50989;DHT22;37008;52.210;21.112;2023-02-01T10:52:53;4.20;99.90
50989;DHT22;37008;52.210;21.112;2023-02-01T10:55:28;4.20;99.90
50989;DHT22;37008;52.210;21.112;2023-02-01T10:57:59;4.30;99.90
50989;DHT22;37008;52.210;21.112;2023-02-01T11:00:26;4.30;99.90
50989;DHT22;37008;52.210;21.112;2023-02-01T11:02:52;4.40;99.90
50989;DHT22;37008;52.210;21.112;2023-02-01T11:05:18;4.40;99.90
50989;DHT22;37008;52.210;21.112;2023-02-01T11:07:53;4.50;99.90
50989;DHT22;37008;52.210;21.112;2023-02-01T11:10:42;4.60;99.90
50989;DHT22;37008;52.210;21.112;2023-02-01T11:13:18;4.70;99.90
50989;DHT22;37008;52.210;21.112;2023-02-01T11:15:54;4.80;99.90
50989;DHT22;37008;52.210;21.112;2023-02-01T11:18:27;4.90;99.90
50989;DHT22;37008;52.210;21.112;2023-02-01T11:20:53;4.90;99.90
50989;DHT22;37008;52.210;21.112;2023-02-01T11:23:23;4.90;99.90
50989;DHT22;37008;52.210;21.112;2023-02-01T11:25:52;4.90;99.90
50989;DHT22;37008;52.210;21.112;2023-02-01T11:28:21;4.90;99.90
50989;DHT22;37008;52.210;21.112;2023-02-01T11:30:48;4.90;99.90
50989;DHT22;37008;52.210;21.112;2023-02-01T11:33:18;4.90;99.90
50989;DHT22;37008;52.210;21.112;2023-02-01T11:35:44;4.90;99.90
50989;DHT22;37008;52.210;21.112;2023-02-01T11:38:21;4.80;99.90
50989;DHT22;37008;52.210;21.112;2023-02-01T11:40:47;4.80;99.90
50989;DHT22;37008;52.210;21.112;2023-02-01T11:43:26;4.80;99.90
50989;DHT22;37008;52.210;21.112;2023-02-01T11:46:00;4.70;99.90
50989;DHT22;37008;52.210;21.112;2023-02-01T11:48:29;4.70;99.90
50989;DHT22;37008;52.210;21.112;2023-02-01T11:53:54;4.70;99.90
50989;DHT22;37008;52.210;21.112;2023-02-01T11:57:02;4.70;99.90
50989;DHT22;37008;52.210;21.112;2023-02-01T12:02:26;4.70;99.90
50989;DHT22;37008;52.210;21.112;2023-02-01T12:08:12;4.70;99.90
50989;DHT22;37008;52.210;21.112;2023-02-01T12:11:56;4.70;99.90
50989;DHT22;37008;52.210;21.112;2023-02-01T12:16:29;4.90;99.90
50989;DHT22;37008;52.210;21.112;2023-02-01T12:39:31;4.80;99.90
50989;DHT22;37008;52.210;21.112;2023-02-01T12:47:44;4.70;99.90
50989;DHT22;37008;52.210;21.112;2023-02-01T12:50:36;4.60;99.90
50989;DHT22;37008;52.210;21.112;2023-02-01T12:56:01;4.50;99.90
50989;DHT22;37008;52.210;21.112;2023-02-01T12:58:46;4.50;99.90
50989;DHT22;37008;52.210;21.112;2023-02-01T13:03:59;4.50;99.90
50989;DHT22;37008;52.210;21.112;2023-02-01T13:07:06;4.60;99.90
50989;DHT22;37008;52.210;21.112;2023-02-01T13:09:38;4.60;99.90
50989;DHT22;37008;52.210;21.112;2023-02-01T13:12:24;4.60;99.90
50989;DHT22;37008;52.210;21.112;2023-02-01T13:15:01;4.70;99.90
50989;DHT22;37008;52.210;21.112;2023-02-01T13:17:30;4.70;99.90
50989;DHT22;37008;52.210;21.112;2023-02-01T13:20:05;4.60;99.90
50989;DHT22;37008;52.210;21.112;2023-02-01T13:22:40;4.70;99.90
50989;DHT22;37008;52.210;21.112;2023-02-01T13:25:14;4.60;99.90
50989;DHT22;37008;52.210;21.112;2023-02-01T13:27:41;4.60;99.90
50989;DHT22;37008;52.210;21.112;2023-02-01T13:30:18;4.60;99.90
50989;DHT22;37008;52.210;21.112;2023-02-01T13:41:27;4.50;99.90
50989;DHT22;37008;52.210;21.112;2023-02-01T13:44:10;4.50;99.90
50989;DHT22;37008;52.210;21.112;2023-02-01T13:46:46;4.50;99.90
50989;DHT22;37008;52.210;21.112;2023-02-01T13:49:25;4.60;99.90
50989;DHT22;37008;52.210;21.112;2023-02-01T13:51:54;4.50;99.90
50989;DHT22;37008;52.210;21.112;2023-02-01T13:54:32;4.50;99.90
50989;DHT22;37008;52.210;21.112;2023-02-01T13:56:59;4.50;99.90
50989;DHT22;37008;52.210;21.112;2023-02-01T14:10:55;4.20;99.90
50989;DHT22;37008;52.210;21.112;2023-02-01T14:13:41;4.20;99.90
50989;DHT22;37008;52.210;21.112;2023-02-01T14:16:16;4.10;99.90
50989;DHT22;37008;52.210;21.112;2023-02-01T14:23:55;4.10;99.90
50989;DHT22;37008;52.210;21.112;2023-02-01T14:26:43;4.20;99.90
50989;DHT22;37008;52.210;21.112;2023-02-01T14:32:19;4.30;99.90
50989;DHT22;37008;52.210;21.112;2023-02-01T14:42:39;4.20;99.90
50989;DHT22;37008;52.210;21.112;2023-02-01T14:47:44;4.20;99.90
50989;DHT22;37008;52.210;21.112;2023-02-01T15:06:25;4.20;99.90
50989;DHT22;37008;52.210;21.112;2023-02-01T15:09:04;4.20;99.90
50989;DHT22;37008;52.210;21.112;2023-02-01T15:14:36;4.30;99.90
50989;DHT22;37008;52.210;21.112;2023-02-01T15:17:03;4.30;99.90
50989;DHT22;37008;52.210;21.112;2023-02-01T15:19:53;4.30;99.90
50989;DHT22;37008;52.210;21.112;2023-02-01T15:22:19;4.30;99.90
50989;DHT22;37008;52.210;21.112;2023-02-01T15:24:55;4.30;99.90
50989;DHT22;37008;52.210;21.112;2023-02-01T15:27:21;4.20;99.90
50989;DHT22;37008;52.210;21.112;2023-02-01T15:29:47;4.20;99.90
50989;DHT22;37008;52.210;21.112;2023-02-01T15:32:37;4.20;99.90
50989;DHT22;37008;52.210;21.112;2023-02-01T15:35:33;4.20;99.90
50989;DHT22;37008;52.210;21.112;2023-02-01T15:38:21;4.20;99.90
50989;DHT22;37008;52.210;21.112;2023-02-01T15:43:22;4.20;99.90
50989;DHT22;37008;52.210;21.112;2023-02-01T15:45:48;4.10;99.90
50989;DHT22;37008;52.210;21.112;2023-02-01T15:48:22;4.20;99.90
50989;DHT22;37008;52.210;21.112;2023-02-01T15:50:48;4.20;99.90
50989;DHT22;37008;52.210;21.112;2023-02-01T15:53:19;4.20;99.90
50989;DHT22;37008;52.210;21.112;2023-02-01T15:55:46;4.20;99.90
50989;DHT22;37008;52.210;21.112;2023-02-01T15:58:19;4.10;99.90
50989;DHT22;37008;52.210;21.112;2023-02-01T16:00:51;4.10;99.90
50989;DHT22;37008;52.210;21.112;2023-02-01T16:03:44;4.00;99.90
50989;DHT22;37008;52.210;21.112;2023-02-01T16:09:01;4.00;99.90
50989;DHT22;37008;52.210;21.112;2023-02-01T16:11:28;4.00;99.90
50989;DHT22;37008;52.210;21.112;2023-02-01T16:13:56;4.00;99.90
50989;DHT22;37008;52.210;21.112;2023-02-01T16:16:22;4.00;99.90
50989;DHT22;37008;52.210;21.112;2023-02-01T16:18:48;4.00;99.90
50989;DHT22;37008;52.210;21.112;2023-02-01T16:21:14;3.90;99.90
50989;DHT22;37008;52.210;21.112;2023-02-01T16:23:39;3.90;99.90
50989;DHT22;37008;52.210;21.112;2023-02-01T16:26:05;3.80;99.90
50989;DHT22;37008;52.210;21.112;2023-02-01T16:28:32;3.80;99.90
50989;DHT22;37008;52.210;21.112;2023-02-01T16:30:58;3.80;99.90
50989;DHT22;37008;52.210;21.112;2023-02-01T16:33:24;3.80;99.90
50989;DHT22;37008;52.210;21.112;2023-02-01T16:35:50;3.80;99.90
50989;DHT22;37008;52.210;21.112;2023-02-01T16:38:18;3.80;99.90
50989;DHT22;37008;52.210;21.112;2023-02-01T16:40:48;3.90;99.90
50989;DHT22;37008;52.210;21.112;2023-02-01T16:43:20;3.80;99.90
50989;DHT22;37008;52.210;21.112;2023-02-01T16:45:47;3.80;99.90
50989;DHT22;37008;52.210;21.112;2023-02-01T16:48:23;3.80;99.90
50989;DHT22;37008;52.210;21.112;2023-02-01T16:50:55;3.80;99.90
50989;DHT22;37008;52.210;21.112;2023-02-01T16:53:22;3.70;99.90
50989;DHT22;37008;52.210;21.112;2023-02-01T16:55:49;3.70;99.90
50989;DHT22;37008;52.210;21.112;2023-02-01T16:58:16;3.70;99.90
50989;DHT22;37008;52.210;21.112;2023-02-01T17:00:42;3.60;99.90
50989;DHT22;37008;52.210;21.112;2023-02-01T17:03:10;3.60;99.90
50989;DHT22;37008;52.210;21.112;2023-02-01T17:05:36;3.50;99.90
50989;DHT22;37008;52.210;21.112;2023-02-01T17:08:04;3.50;99.90
50989;DHT22;37008;52.210;21.112;2023-02-01T17:10:30;3.50;99.90
50989;DHT22;37008;52.210;21.112;2023-02-01T17:12:59;3.50;99.90
50989;DHT22;37008;52.210;21.112;2023-02-01T17:15:28;3.50;99.90
50989;DHT22;37008;52.210;21.112;2023-02-01T17:17:54;3.50;99.90
50989;DHT22;37008;52.210;21.112;2023-02-01T17:20:24;3.50;99.90
50989;DHT22;37008;52.210;21.112;2023-02-01T17:22:52;3.60;99.90
50989;DHT22;37008;52.210;21.112;2023-02-01T17:25:19;3.60;99.90
50989;DHT22;37008;52.210;21.112;2023-02-01T17:27:47;3.60;99.90
50989;DHT22;37008;52.210;21.112;2023-02-01T17:30:14;3.70;99.90
50989;DHT22;37008;52.210;21.112;2023-02-01T17:32:40;3.70;99.90
50989;DHT22;37008;52.210;21.112;2023-02-01T17:35:18;3.70;99.90
50989;DHT22;37008;52.210;21.112;2023-02-01T17:37:44;3.70;99.90
50989;DHT22;37008;52.210;21.112;2023-02-01T17:40:10;3.70;99.90
50989;DHT22;37008;52.210;21.112;2023-02-01T17:42:36;3.70;99.90
50989;DHT22;37008;52.210;21.112;2023-02-01T17:45:18;3.70;99.90
50989;DHT22;37008;52.210;21.112;2023-02-01T17:47:45;3.70;99.90
50989;DHT22;37008;52.210;21.112;2023-02-01T17:50:12;3.70;99.90
50989;DHT22;37008;52.210;21.112;2023-02-01T17:52:40;3.70;99.90
50989;DHT22;37008;52.210;21.112;2023-02-01T17:55:18;3.70;99.90
50989;DHT22;37008;52.210;21.112;2023-02-01T17:57:46;3.60;99.90
50989;DHT22;37008;52.210;21.112;2023-02-01T18:00:12;3.60;99.90
50989;DHT22;37008;52.210;21.112;2023-02-01T18:02:39;3.60;99.90
50989;DHT22;37008;52.210;21.112;2023-02-01T18:05:25;3.50;99.90
50989;DHT22;37008;52.210;21.112;2023-02-01T18:07:51;3.40;99.90
50989;DHT22;37008;52.210;21.112;2023-02-01T18:10:17;3.30;99.90
50989;DHT22;37008;52.210;21.112;2023-02-01T18:12:43;3.20;99.90
50989;DHT22;37008;52.210;21.112;2023-02-01T18:15:22;3.10;99.90
50989;DHT22;37008;52.210;21.112;2023-02-01T18:17:48;3.10;99.90